UBBY

Zaqatala International Airport

Airport
ICAO code
UBBY
IATA Code
ZTU
Summary
ICAO Region
APAC
ICAO Territory
Location

Zaqatala, Zaqatala Rayon

Serving
Zaqatala
Elevation
1281 ft
Coordinates
41° 33' 44" N , 46° 40' 2" E
KCC
Cfa
Metar
Observation
UBBY 081900Z 14004KT 9999 FEW050 BKN100 25/20 Q1016 NOSIG RMK MT OP
Station
Zaqatala International Airport
Date/Time
2022-08-08 19:00:00
Wind direction
140°
Wind speed
04 kts
Lowest cloud amount
few clouds
Temperature
25°C
Dew point
20°C
Humidity
73%
QNH
1016 hPa
Weather condition
n/a

Zaqatala International Airport is an airport serving Zaqatala city in Azerbaijan.

Climatology

Humid subtropical climate (Köppen climate classification Cfa)

Airport map

Aerial View

SKYbrary Partners:

Safety knowledge contributed by: